createdAt,value
2022-10-19T00:02:00.076Z,2.50
2022-10-19T00:04:26.539Z,2.20
2022-10-19T00:06:53.066Z,2.20
2022-10-19T00:09:20.209Z,2.17
2022-10-19T00:11:49.071Z,3.10
2022-10-19T00:14:18.564Z,2.57
2022-10-19T00:16:46.837Z,2.33
2022-10-19T00:19:17.575Z,2.00
2022-10-19T00:21:44.231Z,2.30
2022-10-19T00:24:11.018Z,2.70
2022-10-19T00:26:38.143Z,2.60
2022-10-19T00:29:05.687Z,2.03
2022-10-19T00:31:32.214Z,1.80
2022-10-19T00:33:59.966Z,2.33
2022-10-19T00:36:32.852Z,2.60
2022-10-19T00:39:00.158Z,2.97
2022-10-19T00:41:30.371Z,3.27
2022-10-19T00:44:01.468Z,2.90
2022-10-19T00:46:30.711Z,2.90
2022-10-19T00:49:20.282Z,2.47
2022-10-19T00:51:51.108Z,3.73
2022-10-19T00:54:18.571Z,2.63
2022-10-19T00:56:47.300Z,2.60
2022-10-19T00:59:18.738Z,2.40
2022-10-19T01:01:46.039Z,2.30
2022-10-19T01:04:13.442Z,2.53
2022-10-19T01:06:41.171Z,2.60
2022-10-19T01:09:08.683Z,2.07
2022-10-19T01:11:50.428Z,2.07
2022-10-19T01:14:29.019Z,2.43
2022-10-19T01:17:07.588Z,2.10
2022-10-19T01:20:11.727Z,2.20
2022-10-19T01:22:56.788Z,1.90
2022-10-19T01:25:38.852Z,2.50
2022-10-19T01:28:14.387Z,2.30
2022-10-19T01:30:49.958Z,2.13
2022-10-19T01:33:31.471Z,2.70
2022-10-19T01:36:31.915Z,2.10
2022-10-19T01:39:21.212Z,1.70
2022-10-19T01:41:56.656Z,1.93
2022-10-19T01:44:28.986Z,2.30
2022-10-19T01:47:00.704Z,1.80
2022-10-19T01:49:41.441Z,1.77
2022-10-19T01:52:11.749Z,1.93
2022-10-19T01:54:46.865Z,2.20
2022-10-19T01:57:20.112Z,1.63
2022-10-19T01:59:48.512Z,1.60
2022-10-19T02:02:17.018Z,1.50
2022-10-19T02:04:44.021Z,1.70
2022-10-19T02:07:11.571Z,2.07
2022-10-19T02:09:38.092Z,2.20
2022-10-19T02:12:09.253Z,2.20
2022-10-19T02:14:42.145Z,2.33
2022-10-19T02:17:12.653Z,1.90
2022-10-19T02:19:39.252Z,2.00
2022-10-19T02:22:06.549Z,2.37
2022-10-19T02:24:33.081Z,1.97
2022-10-19T02:27:00.697Z,1.80
2022-10-19T02:29:28.087Z,2.30
2022-10-19T02:31:54.751Z,1.80
2022-10-19T02:34:21.318Z,1.63
2022-10-19T02:36:47.813Z,2.00
2022-10-19T02:39:14.452Z,2.13
2022-10-19T02:42:12.048Z,1.80
2022-10-19T02:44:53.150Z,1.90
2022-10-19T02:47:28.618Z,2.23
2022-10-19T02:49:55.099Z,2.43
2022-10-19T02:52:21.554Z,2.50
2022-10-19T02:54:48.216Z,2.13
2022-10-19T02:57:23.876Z,1.70
2022-10-19T02:59:52.755Z,1.90
2022-10-19T03:02:20.565Z,2.17
2022-10-19T03:07:21.065Z,1.90
2022-10-19T03:09:47.627Z,2.20
2022-10-19T03:12:15.064Z,2.00
2022-10-19T03:14:41.839Z,2.30
2022-10-19T03:17:08.559Z,2.13
2022-10-19T03:19:36.188Z,1.87
2022-10-19T03:22:03.612Z,1.93
2022-10-19T03:24:31.167Z,1.80
2022-10-19T03:26:57.825Z,2.70
2022-10-19T03:29:24.452Z,1.80
2022-10-19T03:31:51.315Z,2.03
2022-10-19T03:34:17.846Z,1.70
2022-10-19T03:36:44.387Z,1.90
2022-10-19T03:39:12.678Z,1.57
2022-10-19T03:41:39.583Z,1.80
2022-10-19T03:44:07.593Z,1.63
2022-10-19T03:46:34.329Z,1.83
2022-10-19T03:49:00.830Z,1.93
2022-10-19T03:51:29.199Z,2.10
2022-10-19T03:53:59.365Z,2.10
2022-10-19T03:56:29.005Z,2.30
2022-10-19T03:58:57.342Z,1.73
2022-10-19T04:01:25.462Z,1.87
2022-10-19T04:03:56.463Z,2.13
2022-10-19T04:06:25.993Z,2.33
2022-10-19T04:08:53.313Z,2.30
2022-10-19T04:11:24.545Z,2.30
2022-10-19T04:13:52.559Z,2.80
2022-10-19T04:16:20.556Z,1.70
2022-10-19T04:18:47.803Z,2.83
2022-10-19T04:21:34.926Z,2.27
2022-10-19T04:24:06.006Z,1.77
2022-10-19T04:26:33.573Z,1.90
2022-10-19T04:29:01.692Z,2.17
2022-10-19T04:31:28.653Z,2.17
2022-10-19T04:33:55.809Z,1.83
2022-10-19T04:36:22.740Z,2.00
2022-10-19T04:38:49.242Z,1.90
2022-10-19T04:41:17.936Z,1.83
2022-10-19T04:43:47.910Z,2.17
2022-10-19T04:46:19.219Z,2.40
2022-10-19T04:48:47.727Z,2.57
2022-10-19T04:51:15.898Z,1.90
2022-10-19T04:53:44.220Z,2.63
2022-10-19T04:56:22.519Z,2.17
2022-10-19T04:58:49.535Z,3.07
2022-10-19T05:01:19.400Z,2.67
2022-10-19T05:03:46.665Z,2.53
2022-10-19T05:06:14.261Z,2.73
2022-10-19T05:08:41.064Z,3.07
2022-10-19T05:11:10.495Z,2.77
2022-10-19T05:13:37.350Z,2.67
2022-10-19T05:16:06.466Z,2.73
2022-10-19T05:18:34.066Z,2.63
2022-10-19T05:21:09.365Z,3.37
2022-10-19T05:23:35.886Z,2.07
2022-10-19T05:26:07.758Z,3.40
2022-10-19T05:28:35.148Z,3.10
2022-10-19T05:31:21.036Z,1.90
2022-10-19T05:33:48.034Z,2.30
2022-10-19T05:36:19.512Z,2.97
2022-10-19T05:38:47.987Z,3.47
2022-10-19T05:41:15.403Z,3.57
2022-10-19T05:43:43.070Z,2.10
2022-10-19T05:46:12.019Z,2.80
2022-10-19T05:48:39.383Z,3.43
2022-10-19T05:51:07.160Z,2.40
2022-10-19T05:53:34.887Z,3.40
2022-10-19T05:56:03.835Z,3.93
2022-10-19T05:58:30.285Z,2.50
2022-10-19T06:00:58.754Z,2.43
2022-10-19T06:03:26.001Z,2.47
2022-10-19T06:05:53.762Z,3.17
2022-10-19T06:08:22.412Z,2.80
2022-10-19T06:10:49.489Z,2.80
2022-10-19T06:13:17.131Z,2.70
2022-10-19T06:15:43.599Z,3.43
2022-10-19T06:18:12.130Z,3.10
2022-10-19T06:20:42.400Z,2.40
2022-10-19T06:23:09.420Z,2.30
2022-10-19T06:25:37.696Z,2.97
2022-10-19T06:28:05.484Z,2.90
2022-10-19T06:30:32.081Z,2.70
2022-10-19T06:32:59.958Z,3.07
2022-10-19T06:35:26.572Z,2.80
2022-10-19T06:37:59.576Z,3.00
2022-10-19T06:40:26.180Z,3.00
2022-10-19T06:42:55.195Z,2.30
2022-10-19T06:45:21.658Z,2.80
2022-10-19T06:50:20.672Z,2.50
2022-10-19T06:52:47.240Z,3.10
2022-10-19T06:55:13.989Z,3.70
2022-10-19T06:57:40.492Z,2.40
2022-10-19T07:00:08.360Z,3.20
2022-10-19T07:02:34.881Z,3.70
2022-10-19T07:05:06.129Z,3.80
2022-10-19T07:07:34.245Z,3.77
2022-10-19T07:10:03.291Z,3.03
2022-10-19T07:12:29.748Z,3.60
2022-10-19T07:14:56.452Z,3.07
2022-10-19T07:17:22.942Z,3.70
2022-10-19T07:19:49.397Z,2.73
2022-10-19T07:22:21.199Z,3.67
2022-10-19T07:24:52.224Z,4.70
2022-10-19T07:27:18.816Z,4.57
2022-10-19T07:29:45.337Z,3.67
2022-10-19T07:32:11.848Z,3.33
2022-10-19T07:34:38.307Z,3.37
2022-10-19T07:37:04.771Z,3.73
2022-10-19T07:39:31.260Z,4.40
2022-10-19T07:41:57.798Z,5.03
2022-10-19T07:44:24.350Z,4.30
2022-10-19T07:46:50.903Z,3.53
2022-10-19T07:49:19.052Z,3.40
2022-10-19T07:51:46.977Z,3.70
2022-10-19T07:54:13.808Z,4.20
2022-10-19T07:56:40.627Z,5.07
2022-10-19T07:59:10.140Z,4.93
2022-10-19T08:01:41.439Z,5.73
2022-10-19T08:06:54.555Z,5.50
2022-10-19T08:09:50.918Z,5.20
2022-10-19T08:12:09.967Z,6.23
2022-10-19T08:14:38.949Z,5.97
2022-10-19T08:17:05.591Z,5.83
2022-10-19T08:19:32.267Z,5.83
2022-10-19T08:21:58.668Z,6.93
2022-10-19T08:24:25.178Z,5.20
2022-10-19T08:26:52.147Z,4.30
2022-10-19T08:29:20.802Z,6.17
2022-10-19T08:31:48.493Z,6.80
2022-10-19T08:34:16.044Z,8.27
2022-10-19T08:36:43.099Z,6.83
2022-10-19T08:39:12.638Z,9.20
2022-10-19T08:41:59.363Z,8.33
2022-10-19T08:44:34.834Z,6.57
2022-10-19T08:47:23.266Z,7.93
2022-10-19T08:49:50.605Z,9.93
2022-10-19T08:52:32.078Z,8.73
2022-10-19T08:55:09.152Z,9.80
2022-10-19T08:57:53.423Z,12.10
2022-10-19T09:03:54.376Z,10.47
2022-10-19T09:06:29.168Z,9.63
2022-10-19T09:08:57.085Z,12.77
2022-10-19T09:11:28.550Z,7.73
2022-10-19T09:14:06.813Z,6.63
2022-10-19T09:16:35.029Z,4.23
2022-10-19T09:19:02.658Z,6.63
2022-10-19T09:21:48.596Z,9.10
2022-10-19T09:24:32.481Z,4.00
2022-10-19T09:27:00.971Z,3.13
2022-10-19T09:29:39.545Z,3.73
2022-10-19T09:32:13.607Z,4.43
2022-10-19T09:34:45.748Z,3.80
2022-10-19T09:37:21.761Z,2.60
2022-10-19T09:39:54.092Z,2.00
2022-10-19T09:42:30.619Z,2.17
2022-10-19T09:44:59.673Z,2.73
2022-10-19T09:47:40.910Z,2.43
2022-10-19T09:50:25.395Z,2.17
2022-10-19T09:53:02.605Z,1.63
2022-10-19T09:55:45.503Z,1.60
2022-10-19T09:58:18.723Z,1.47
2022-10-19T10:00:50.706Z,1.20
2022-10-19T10:03:43.370Z,1.77
2022-10-19T10:06:14.635Z,1.20
2022-10-19T10:08:47.553Z,1.13
2022-10-19T10:11:22.754Z,1.33
2022-10-19T10:13:51.664Z,1.30
2022-10-19T10:16:21.331Z,1.10
2022-10-19T10:18:55.608Z,0.77
2022-10-19T10:21:26.294Z,0.83
2022-10-19T10:24:13.115Z,0.87
2022-10-19T10:26:42.831Z,0.90
2022-10-19T10:29:30.135Z,1.00
2022-10-19T10:32:01.632Z,0.77
2022-10-19T10:34:46.353Z,1.08
2022-10-19T10:37:21.622Z,0.80
2022-10-19T10:39:52.314Z,0.97
2022-10-19T10:42:22.824Z,0.60
2022-10-19T10:44:53.115Z,1.08
2022-10-19T10:47:23.282Z,0.70
2022-10-19T10:49:59.132Z,0.80
2022-10-19T10:52:29.105Z,0.82
2022-10-19T10:55:10.801Z,0.82
2022-10-19T10:57:46.276Z,1.20
2022-10-19T11:00:16.490Z,0.88
2022-10-19T11:02:49.517Z,0.90
2022-10-19T11:05:29.719Z,0.80
2022-10-19T11:08:24.956Z,0.90
2022-10-19T11:11:15.062Z,0.90
2022-10-19T11:13:48.730Z,1.15
2022-10-19T11:16:18.503Z,1.10
2022-10-19T11:18:50.167Z,1.10
2022-10-19T11:21:26.365Z,0.90
2022-10-19T11:24:21.669Z,1.02
2022-10-19T11:26:51.060Z,1.00
2022-10-19T11:29:55.104Z,1.23
2022-10-19T11:32:37.792Z,1.02
2022-10-19T11:35:16.377Z,1.50
2022-10-19T11:38:18.903Z,1.20
2022-10-19T11:41:18.341Z,1.50
2022-10-19T11:44:04.355Z,1.20
2022-10-19T11:46:42.558Z,1.13
2022-10-19T11:49:26.275Z,1.55
2022-10-19T11:51:59.716Z,1.50
2022-10-19T11:54:38.905Z,1.80
2022-10-19T11:57:24.886Z,1.48
2022-10-19T12:00:15.174Z,1.70
2022-10-19T12:03:03.926Z,1.75
2022-10-19T12:05:48.825Z,1.80
2022-10-19T12:08:55.376Z,1.60
2022-10-19T12:11:23.659Z,1.70
2022-10-19T12:13:58.465Z,1.45
2022-10-19T12:16:35.703Z,1.50
2022-10-19T12:19:04.632Z,1.30
2022-10-19T12:21:41.179Z,1.30
2022-10-19T12:24:15.829Z,1.65
2022-10-19T12:26:43.680Z,1.67
2022-10-19T12:29:21.093Z,1.50
2022-10-19T12:31:49.049Z,1.60
2022-10-19T12:34:37.728Z,1.33
2022-10-19T12:37:09.393Z,1.35
2022-10-19T12:39:53.553Z,1.00
2022-10-19T12:42:32.626Z,0.98
2022-10-19T12:45:08.473Z,1.20
2022-10-19T12:47:35.290Z,1.17
2022-10-19T12:50:02.188Z,1.40
2022-10-19T12:52:52.372Z,1.00
2022-10-19T12:55:24.800Z,1.20
2022-10-19T12:58:06.606Z,1.27
2022-10-19T13:00:36.546Z,1.30
2022-10-19T13:03:25.147Z,1.10
2022-10-19T13:06:07.243Z,1.20
2022-10-19T13:08:43.409Z,1.00
2022-10-19T13:11:17.411Z,1.13
2022-10-19T13:13:56.058Z,1.20
2022-10-19T13:16:38.360Z,1.10
2022-10-19T13:19:14.076Z,1.25
2022-10-19T13:22:00.375Z,1.00
2022-10-19T13:24:27.068Z,1.27
2022-10-19T13:26:59.800Z,1.23
2022-10-19T13:29:28.953Z,0.80
2022-10-19T13:31:55.516Z,1.08
2022-10-19T13:34:25.104Z,1.02
2022-10-19T13:37:02.986Z,1.13
2022-10-19T13:39:30.473Z,1.20
2022-10-19T13:41:57.375Z,0.90
2022-10-19T13:44:30.882Z,1.40
2022-10-19T13:47:23.343Z,1.10
2022-10-19T13:49:55.846Z,1.20
2022-10-19T13:52:37.512Z,0.90
2022-10-19T13:55:45.209Z,0.80
2022-10-19T13:58:52.318Z,0.88
2022-10-19T14:01:52.896Z,1.08
2022-10-19T14:04:25.383Z,1.30
2022-10-19T14:07:00.769Z,1.23
2022-10-19T14:09:47.281Z,1.20
2022-10-19T14:12:34.168Z,1.02
2022-10-19T14:15:00.742Z,0.88
2022-10-19T14:17:34.265Z,0.90
2022-10-19T14:20:01.268Z,0.98
2022-10-19T14:22:36.227Z,0.85
2022-10-19T14:25:29.809Z,1.02
2022-10-19T14:28:06.662Z,0.93
2022-10-19T14:30:35.774Z,0.60
2022-10-19T14:33:09.019Z,1.00
2022-10-19T14:35:38.004Z,1.00
2022-10-19T14:38:15.931Z,0.90
2022-10-19T14:40:42.694Z,1.20
2022-10-19T14:43:20.761Z,1.10
2022-10-19T14:46:14.087Z,1.33
2022-10-19T14:48:52.160Z,1.23
2022-10-19T14:51:30.915Z,1.00
2022-10-19T14:54:05.927Z,1.00
2022-10-19T14:56:43.219Z,1.00
2022-10-19T14:59:26.371Z,1.08
2022-10-19T15:01:57.150Z,0.90
2022-10-19T15:04:30.981Z,1.08
2022-10-19T15:07:01.255Z,1.02
2022-10-19T15:09:37.775Z,1.15
2022-10-19T15:12:19.529Z,0.85
2022-10-19T15:14:47.784Z,1.13
2022-10-19T15:17:30.424Z,0.80
2022-10-19T15:20:01.129Z,0.90
2022-10-19T15:22:31.038Z,1.30
2022-10-19T15:25:06.587Z,0.95
2022-10-19T15:27:35.624Z,1.20
2022-10-19T15:30:06.562Z,1.42
2022-10-19T15:32:36.029Z,0.73
2022-10-19T15:35:12.024Z,0.98
2022-10-19T15:37:43.546Z,0.90
2022-10-19T15:40:21.727Z,1.30
2022-10-19T15:42:49.059Z,1.00
2022-10-19T15:45:36.118Z,1.20
2022-10-19T15:48:21.640Z,0.95
2022-10-19T15:50:52.008Z,1.83
2022-10-19T15:53:19.812Z,1.00
2022-10-19T15:55:46.598Z,0.90
2022-10-19T15:58:13.905Z,1.38
2022-10-19T16:00:41.599Z,1.20
2022-10-19T16:03:09.144Z,1.17
2022-10-19T16:05:36.595Z,1.08
2022-10-19T16:08:03.625Z,3.22
2022-10-19T16:10:30.120Z,1.10
2022-10-19T16:12:59.271Z,1.38
2022-10-19T16:15:26.850Z,1.17
2022-10-19T16:17:55.863Z,1.75
2022-10-19T16:20:23.180Z,1.30
2022-10-19T16:22:50.377Z,1.17
2022-10-19T16:25:20.617Z,1.77
2022-10-19T16:27:47.184Z,3.03
2022-10-19T16:30:14.258Z,1.40
2022-10-19T16:35:08.716Z,1.13
2022-10-19T16:37:35.440Z,1.20
2022-10-19T16:40:02.344Z,2.20
2022-10-19T16:42:30.578Z,1.23
2022-10-19T16:44:57.162Z,1.52
2022-10-19T16:47:23.703Z,1.30
2022-10-19T16:49:58.008Z,1.80
2022-10-19T16:52:24.633Z,1.20
2022-10-19T16:54:51.138Z,1.20
2022-10-19T16:57:17.815Z,1.65
2022-10-19T16:59:44.579Z,1.80
2022-10-19T17:02:11.696Z,1.33
2022-10-19T17:04:39.047Z,1.40
2022-10-19T17:07:05.575Z,2.20
2022-10-19T17:09:49.733Z,2.00
2022-10-19T17:12:17.775Z,2.17
2022-10-19T17:14:44.228Z,1.88
2022-10-19T17:17:11.460Z,2.40
2022-10-19T17:19:38.169Z,2.53
2022-10-19T17:22:06.396Z,2.28
2022-10-19T17:24:33.097Z,2.65
2022-10-19T17:27:02.639Z,1.77
2022-10-19T17:29:29.244Z,2.33
2022-10-19T17:31:55.817Z,2.28
2022-10-19T17:34:22.784Z,3.08
2022-10-19T17:36:49.483Z,3.00
2022-10-19T17:39:19.221Z,2.83
2022-10-19T17:41:47.941Z,2.42
2022-10-19T17:44:16.796Z,2.40
2022-10-19T17:46:43.991Z,2.75
2022-10-19T17:49:10.896Z,3.00
2022-10-19T17:51:38.336Z,3.15
2022-10-19T17:54:07.694Z,2.80
2022-10-19T17:56:35.916Z,2.58
2022-10-19T17:59:07.652Z,2.78
2022-10-19T18:01:35.832Z,2.70
2022-10-19T18:04:02.303Z,2.60
2022-10-19T18:06:34.724Z,2.78
2022-10-19T18:09:03.851Z,2.80
2022-10-19T18:11:40.056Z,3.00
2022-10-19T18:14:08.750Z,2.85
2022-10-19T18:16:40.473Z,2.30
2022-10-19T18:19:08.134Z,1.70
2022-10-19T18:21:38.739Z,2.92
2022-10-19T18:24:09.041Z,2.45
2022-10-19T18:26:39.010Z,3.92
2022-10-19T18:29:16.492Z,3.38
2022-10-19T18:31:43.318Z,2.70
2022-10-19T18:34:15.095Z,2.65
2022-10-19T18:36:42.022Z,3.47
2022-10-19T18:39:08.622Z,2.30
2022-10-19T18:41:35.049Z,3.70
2022-10-19T18:44:05.472Z,3.53
2022-10-19T18:46:34.116Z,2.55
2022-10-19T18:49:01.479Z,3.05
2022-10-19T18:51:28.779Z,3.40
2022-10-19T18:53:55.601Z,3.30
2022-10-19T18:56:23.022Z,2.58
2022-10-19T18:58:50.484Z,3.25
2022-10-19T19:01:24.331Z,2.20
2022-10-19T19:03:52.975Z,3.37
2022-10-19T19:06:25.203Z,3.70
2022-10-19T19:08:55.074Z,3.50
2022-10-19T19:11:28.111Z,2.73
2022-10-19T19:14:00.553Z,3.33
2022-10-19T19:16:30.516Z,3.27
2022-10-19T19:18:58.675Z,3.00
2022-10-19T19:21:28.421Z,3.43
2022-10-19T19:23:57.801Z,3.90
2022-10-19T19:26:27.176Z,3.27
2022-10-19T19:28:54.205Z,3.23
2022-10-19T19:31:20.806Z,2.40
2022-10-19T19:33:48.199Z,2.30
2022-10-19T19:36:17.103Z,2.20
2022-10-19T19:38:45.664Z,3.43
2022-10-19T19:41:15.190Z,2.80
2022-10-19T19:43:42.648Z,3.00
2022-10-19T19:46:12.967Z,3.53
2022-10-19T19:48:42.749Z,2.03
2022-10-19T19:51:17.301Z,3.20
2022-10-19T19:53:44.352Z,2.30
2022-10-19T19:56:12.417Z,3.27
2022-10-19T19:58:39.684Z,2.80
2022-10-19T20:01:15.064Z,2.40
2022-10-19T20:03:42.514Z,3.13
2022-10-19T20:06:10.451Z,2.63
2022-10-19T20:08:37.509Z,2.37
2022-10-19T20:11:09.680Z,3.13
2022-10-19T20:13:36.511Z,3.07
2022-10-19T20:16:12.499Z,2.10
2022-10-19T20:18:40.354Z,2.60
2022-10-19T20:21:07.207Z,3.10
2022-10-19T20:23:34.094Z,2.83
2022-10-19T20:26:14.593Z,2.40
2022-10-19T20:28:41.118Z,3.20
2022-10-19T20:31:09.214Z,2.33
2022-10-19T20:33:37.984Z,3.10
2022-10-19T20:36:04.915Z,2.40
2022-10-19T20:38:31.391Z,2.97
2022-10-19T20:40:57.852Z,3.00
2022-10-19T20:43:24.427Z,2.47
2022-10-19T20:45:50.880Z,2.70
2022-10-19T20:48:17.329Z,3.33
2022-10-19T20:50:43.946Z,3.00
2022-10-19T20:53:12.556Z,2.87
2022-10-19T20:55:39.548Z,3.93
2022-10-19T20:58:06.014Z,2.77
2022-10-19T21:00:33.019Z,2.47
2022-10-19T21:02:59.663Z,2.67
2022-10-19T21:05:26.107Z,3.00
2022-10-19T21:07:53.280Z,3.33
2022-10-19T21:10:19.790Z,2.63
2022-10-19T21:12:46.218Z,2.40
2022-10-19T21:15:12.790Z,2.00
2022-10-19T21:17:39.438Z,3.53
2022-10-19T21:20:06.421Z,3.47
2022-10-19T21:22:39.054Z,2.17
2022-10-19T21:25:06.119Z,2.20
2022-10-19T21:27:32.752Z,3.07
2022-10-19T21:29:59.559Z,2.50
2022-10-19T21:32:26.650Z,2.87
2022-10-19T21:34:53.255Z,3.40
2022-10-19T21:37:19.755Z,3.57
2022-10-19T21:39:46.191Z,3.70
2022-10-19T21:42:12.721Z,2.63
2022-10-19T21:44:39.243Z,3.03
2022-10-19T21:47:06.300Z,3.30
2022-10-19T21:49:32.773Z,3.77
2022-10-19T21:51:59.199Z,2.83
2022-10-19T21:54:25.675Z,2.57
2022-10-19T21:56:53.288Z,3.37
2022-10-19T21:59:20.140Z,2.90
2022-10-19T22:01:46.710Z,2.77
2022-10-19T22:04:16.214Z,3.63
2022-10-19T22:06:43.266Z,2.60
2022-10-19T22:09:13.243Z,2.80
2022-10-19T22:11:39.927Z,3.43
2022-10-19T22:14:06.527Z,2.93
2022-10-19T22:16:33.729Z,2.90
2022-10-19T22:19:00.243Z,2.97
2022-10-19T22:21:29.445Z,3.80
2022-10-19T22:24:02.124Z,2.83
2022-10-19T22:26:31.233Z,3.97
2022-10-19T22:28:59.580Z,3.17
2022-10-19T22:31:27.665Z,3.13
2022-10-19T22:33:54.191Z,2.83
2022-10-19T22:36:20.911Z,3.63
2022-10-19T22:38:47.626Z,2.83
2022-10-19T22:41:14.232Z,3.43
2022-10-19T22:43:40.829Z,3.50
2022-10-19T22:46:07.576Z,2.87
2022-10-19T22:48:34.115Z,4.20
2022-10-19T22:51:00.562Z,3.57
2022-10-19T22:53:27.128Z,3.93
2022-10-19T22:55:53.593Z,3.40
2022-10-19T22:58:20.319Z,3.27
2022-10-19T23:01:17.512Z,4.33
2022-10-19T23:03:44.534Z,3.13
2022-10-19T23:06:13.417Z,3.30
2022-10-19T23:08:50.313Z,3.40
2022-10-19T23:11:17.644Z,3.53
2022-10-19T23:13:45.878Z,3.57
2022-10-19T23:16:12.747Z,4.53
2022-10-19T23:18:41.101Z,3.00
2022-10-19T23:21:11.690Z,4.07
2022-10-19T23:23:39.576Z,4.33
2022-10-19T23:26:08.395Z,5.03
2022-10-19T23:28:37.894Z,2.90
2022-10-19T23:31:07.892Z,3.90
2022-10-19T23:33:35.582Z,3.20
2022-10-19T23:36:21.045Z,3.00
2022-10-19T23:38:49.847Z,3.37
2022-10-19T23:41:17.951Z,3.93
2022-10-19T23:43:45.135Z,3.77
2022-10-19T23:46:11.966Z,3.73
2022-10-19T23:48:39.246Z,3.10
2022-10-19T23:51:12.524Z,3.93
2022-10-19T23:53:42.557Z,3.47
2022-10-19T23:56:19.766Z,5.07
2022-10-19T23:58:47.459Z,3.07
